createdAt,value
2024-01-27T00:00:58.804Z,101863.03
2024-01-27T00:03:26.587Z,101871.81
2024-01-27T00:05:55.172Z,101881.03
2024-01-27T00:08:23.678Z,101873.72
2024-01-27T00:10:53.532Z,101883.56
2024-01-27T00:13:21.251Z,101884.41
2024-01-27T00:15:49.194Z,101868.47
2024-01-27T00:18:17.687Z,101860.78
2024-01-27T00:20:45.490Z,101863.91
2024-01-27T00:23:13.832Z,101866.81
2024-01-27T00:25:41.580Z,101883.38
2024-01-27T00:28:11.477Z,101881.09
2024-01-27T00:30:39.310Z,101882.13
2024-01-27T00:33:07.567Z,101877.94
2024-01-27T00:35:35.735Z,101895.75
2024-01-27T00:38:03.615Z,101891.59
2024-01-27T00:40:32.022Z,101895.53
2024-01-27T00:42:59.839Z,101895.13
2024-01-27T00:45:31.631Z,101883.38
2024-01-27T00:47:59.914Z,101890.72
2024-01-27T00:50:27.817Z,101896.97
2024-01-27T00:52:59.177Z,101900.13
2024-01-27T00:55:27.069Z,101903.47
2024-01-27T00:57:55.501Z,101896.13
2024-01-27T01:00:23.356Z,101909.31
2024-01-27T01:02:52.504Z,101900.53
2024-01-27T01:05:20.745Z,101895.94
2024-01-27T01:07:48.503Z,101913.09
2024-01-27T01:10:16.685Z,101911.00
2024-01-27T01:12:44.814Z,101900.78
2024-01-27T01:15:13.655Z,101910.59
2024-01-27T01:17:41.450Z,101929.00
2024-01-27T01:20:11.591Z,101932.56
2024-01-27T01:22:39.329Z,101931.50
2024-01-27T01:25:07.949Z,101928.56
2024-01-27T01:27:35.978Z,101934.44
2024-01-27T01:30:04.172Z,101938.63
2024-01-27T01:32:31.897Z,101935.28
2024-01-27T01:34:59.617Z,101933.81
2024-01-27T01:37:28.662Z,101935.47
2024-01-27T01:39:56.985Z,101939.44
2024-01-27T01:42:26.151Z,101955.13
2024-01-27T01:44:54.358Z,101945.31
2024-01-27T01:47:23.279Z,101955.38
2024-01-27T01:49:51.264Z,101951.78
2024-01-27T01:52:21.480Z,101947.19
2024-01-27T01:54:51.258Z,101955.56
2024-01-27T01:57:19.666Z,101946.78
2024-01-27T01:59:48.574Z,101945.94
2024-01-27T02:02:17.713Z,101964.13
2024-01-27T02:04:47.183Z,101956.22
2024-01-27T02:07:15.569Z,101963.94
2024-01-27T02:09:43.333Z,101966.03
2024-01-27T02:12:12.871Z,101972.50
2024-01-27T02:14:40.978Z,101980.03
2024-01-27T02:17:08.764Z,101969.16
2024-01-27T02:19:37.156Z,101986.31
2024-01-27T02:22:05.826Z,101970.63
2024-01-27T02:24:35.326Z,101993.63
2024-01-27T02:27:03.108Z,101986.72
2024-01-27T02:29:31.100Z,101972.28
2024-01-27T02:31:59.271Z,101989.66
2024-01-27T02:34:27.406Z,101992.16
2024-01-27T02:36:55.219Z,101995.94
2024-01-27T02:39:23.582Z,101971.25
2024-01-27T02:41:52.659Z,101977.97
2024-01-27T02:44:20.896Z,101994.69
2024-01-27T02:46:48.591Z,101998.44
2024-01-27T02:49:16.413Z,101994.44
2024-01-27T02:51:45.563Z,101997.19
2024-01-27T02:54:13.343Z,101998.22
2024-01-27T02:56:41.460Z,101993.00
2024-01-27T02:59:10.925Z,102008.88
2024-01-27T03:01:38.613Z,102003.69
2024-01-27T03:04:06.820Z,102001.56
2024-01-27T03:06:34.636Z,102007.00
2024-01-27T03:09:02.771Z,102009.09
2024-01-27T03:11:30.536Z,102012.66
2024-01-27T03:13:58.661Z,102006.16
2024-01-27T03:16:27.731Z,102011.19
2024-01-27T03:18:55.875Z,102022.91
2024-01-27T03:21:24.089Z,102025.44
2024-01-27T03:23:51.855Z,102021.84
2024-01-27T03:26:19.610Z,102005.13
2024-01-27T03:28:47.840Z,102014.09
2024-01-27T03:31:15.581Z,102030.88
2024-01-27T03:33:44.792Z,102016.41
2024-01-27T03:36:13.810Z,102034.00
2024-01-27T03:38:43.199Z,102023.31
2024-01-27T03:41:10.954Z,102022.50
2024-01-27T03:43:39.191Z,102023.53
2024-01-27T03:46:07.312Z,102021.00
2024-01-27T03:48:36.243Z,102033.97
2024-01-27T03:51:07.140Z,102030.41
2024-01-27T03:53:34.901Z,102035.59
2024-01-27T03:56:03.814Z,102038.94
2024-01-27T03:58:31.723Z,102057.78
2024-01-27T04:00:59.833Z,102048.78
2024-01-27T04:03:27.744Z,102057.78
2024-01-27T04:05:56.013Z,102052.72
2024-01-27T04:08:25.566Z,102049.38
2024-01-27T04:10:53.259Z,102053.13
2024-01-27T04:13:21.019Z,102059.19
2024-01-27T04:15:49.525Z,102070.06
2024-01-27T04:18:17.323Z,102061.03
2024-01-27T04:20:46.824Z,102071.69
2024-01-27T04:23:15.035Z,102072.13
2024-01-27T04:25:45.064Z,102071.28
2024-01-27T04:28:13.905Z,102075.03
2024-01-27T04:30:41.934Z,102079.44
2024-01-27T04:33:09.947Z,102090.88
2024-01-27T04:35:37.808Z,102094.91
2024-01-27T04:38:06.009Z,102097.59
2024-01-27T04:40:34.148Z,102103.19
2024-01-27T04:43:02.485Z,102105.78
2024-01-27T04:45:30.571Z,102109.34
2024-01-27T04:47:58.991Z,102103.50
2024-01-27T04:50:26.806Z,102119.56
2024-01-27T04:52:55.117Z,102117.53
2024-01-27T04:55:22.829Z,102116.00
2024-01-27T04:57:50.924Z,102114.56
2024-01-27T05:00:20.263Z,102121.69
2024-01-27T05:02:48.143Z,102089.91
2024-01-27T05:05:15.875Z,102128.16
2024-01-27T05:07:43.617Z,102133.22
2024-01-27T05:10:13.873Z,102124.22
2024-01-27T05:12:41.729Z,102144.91
2024-01-27T05:15:11.627Z,102144.25
2024-01-27T05:17:40.853Z,102139.06
2024-01-27T05:20:10.358Z,102156.22
2024-01-27T05:22:38.123Z,102163.34
2024-01-27T05:25:06.705Z,102178.38
2024-01-27T05:27:34.795Z,102159.56
2024-01-27T05:30:02.904Z,102149.13
2024-01-27T05:32:31.079Z,102147.19
2024-01-27T05:35:00.081Z,102160.84
2024-01-27T05:37:27.933Z,102161.88
2024-01-27T05:39:56.132Z,102151.38
2024-01-27T05:42:24.080Z,102158.09
2024-01-27T05:44:51.942Z,102154.75
2024-01-27T05:47:20.002Z,102157.06
2024-01-27T05:49:48.406Z,102159.78
2024-01-27T05:52:24.743Z,102168.56
2024-01-27T05:54:54.175Z,102161.84
2024-01-27T05:57:22.706Z,102161.81
2024-01-27T05:59:50.631Z,102165.59
2024-01-27T06:02:19.706Z,102171.50
2024-01-27T06:04:47.781Z,102179.88
2024-01-27T06:07:17.019Z,102183.22
2024-01-27T06:09:45.129Z,102189.28
2024-01-27T06:12:12.858Z,102202.44
2024-01-27T06:14:41.302Z,102194.91
2024-01-27T06:17:08.990Z,102204.09
2024-01-27T06:19:36.962Z,102205.59
2024-01-27T06:22:06.623Z,102209.16
2024-01-27T06:24:36.215Z,102206.81
2024-01-27T06:27:04.958Z,102215.22
2024-01-27T06:29:32.654Z,102221.72
2024-01-27T06:32:00.362Z,102233.44
2024-01-27T06:34:28.660Z,102239.69
2024-01-27T06:36:56.842Z,102236.75
2024-01-27T06:39:24.617Z,102234.28
2024-01-27T06:41:54.026Z,102239.06
2024-01-27T06:44:22.247Z,102245.81
2024-01-27T06:46:51.193Z,102247.91
2024-01-27T06:49:19.673Z,102256.28
2024-01-27T06:51:47.961Z,102255.81
2024-01-27T06:54:16.060Z,102270.09
2024-01-27T06:56:43.858Z,102271.72
2024-01-27T06:59:13.108Z,102277.03
2024-01-27T07:01:41.440Z,102282.03
2024-01-27T07:04:09.356Z,102278.28
2024-01-27T07:06:37.306Z,102282.84
2024-01-27T07:09:05.443Z,102279.94
2024-01-27T07:11:33.187Z,102293.97
2024-01-27T07:14:00.864Z,102289.16
2024-01-27T07:16:30.452Z,102297.72
2024-01-27T07:18:58.191Z,102300.41
2024-01-27T07:21:28.046Z,102306.47
2024-01-27T07:23:56.045Z,102303.75
2024-01-27T07:26:24.201Z,102308.19
2024-01-27T07:28:51.944Z,102312.31
2024-01-27T07:31:20.534Z,102314.81
2024-01-27T07:33:49.936Z,102311.06
2024-01-27T07:36:17.723Z,102320.06
2024-01-27T07:38:45.893Z,102326.56
2024-01-27T07:41:14.458Z,102328.41
2024-01-27T07:43:43.538Z,102332.03
2024-01-27T07:46:11.263Z,102328.28
2024-01-27T07:48:39.179Z,102332.22
2024-01-27T07:51:08.383Z,102327.66
2024-01-27T07:53:36.650Z,102339.41
2024-01-27T07:56:06.842Z,102339.56
2024-01-27T07:58:36.496Z,102351.13
2024-01-27T08:01:04.635Z,102351.34
2024-01-27T08:03:32.525Z,102363.44
2024-01-27T08:06:00.617Z,102367.03
2024-01-27T08:08:29.994Z,102364.03
2024-01-27T08:10:57.742Z,102357.53
2024-01-27T08:13:25.501Z,102352.28
2024-01-27T08:15:53.569Z,102356.50
2024-01-27T08:18:22.492Z,102358.41
2024-01-27T08:20:50.303Z,102352.97
2024-01-27T08:23:18.746Z,102356.38
2024-01-27T08:25:51.411Z,102371.59
2024-01-27T08:28:19.170Z,102372.06
2024-01-27T08:30:47.436Z,102369.34
2024-01-27T08:33:15.447Z,102373.78
2024-01-27T08:35:43.812Z,102379.44
2024-01-27T08:38:11.988Z,102388.66
2024-01-27T08:40:39.729Z,102377.78
2024-01-27T08:43:09.102Z,102374.03
2024-01-27T08:45:36.896Z,102382.41
2024-01-27T08:48:05.421Z,102384.94
2024-01-27T08:50:33.589Z,102381.38
2024-01-27T08:53:01.708Z,102391.78
2024-01-27T08:55:29.897Z,102387.03
2024-01-27T08:57:59.626Z,102389.16
2024-01-27T09:00:29.358Z,102397.53
2024-01-27T09:02:57.429Z,102398.22
2024-01-27T09:05:25.600Z,102405.78
2024-01-27T09:07:53.808Z,102403.44
2024-01-27T09:10:21.575Z,102409.69
2024-01-27T09:12:49.349Z,102410.00
2024-01-27T09:15:17.891Z,102407.22
2024-01-27T09:17:47.092Z,102416.19
2024-01-27T09:20:14.972Z,102412.22
2024-01-27T09:22:43.252Z,102415.66
2024-01-27T09:25:10.978Z,102425.66
2024-01-27T09:27:39.244Z,102421.47
2024-01-27T09:30:08.922Z,102422.97
2024-01-27T09:32:37.143Z,102419.19
2024-01-27T09:35:07.230Z,102430.09
2024-01-27T09:37:34.940Z,102429.25
2024-01-27T09:40:04.325Z,102435.38
2024-01-27T09:42:35.179Z,102437.69
2024-01-27T09:45:04.482Z,102452.97
2024-01-27T09:47:32.709Z,102456.13
2024-01-27T09:50:00.484Z,102454.47
2024-01-27T09:52:29.709Z,102463.47
2024-01-27T09:54:58.023Z,102457.78
2024-01-27T09:57:26.249Z,102468.28
2024-01-27T09:59:55.032Z,102460.94
2024-01-27T10:02:23.209Z,102471.44
2024-01-27T10:04:51.869Z,102472.25
2024-01-27T10:07:19.623Z,102465.78
2024-01-27T10:09:52.777Z,102469.13
2024-01-27T10:12:23.757Z,102472.72
2024-01-27T10:14:53.757Z,102470.44
2024-01-27T10:17:27.278Z,102474.22
2024-01-27T10:20:02.885Z,102476.31
2024-01-27T10:22:30.652Z,102479.84
2024-01-27T10:24:59.730Z,102483.28
2024-01-27T10:27:28.017Z,102492.47
2024-01-27T10:29:56.470Z,102494.56
2024-01-27T10:32:25.141Z,102494.34
2024-01-27T10:35:03.800Z,102487.44
2024-01-27T10:37:32.751Z,102489.31
2024-01-27T10:40:09.460Z,102489.34
2024-01-27T10:42:38.306Z,102497.34
2024-01-27T10:45:07.836Z,102494.84
2024-01-27T10:47:35.821Z,102493.94
2024-01-27T10:50:04.215Z,102489.34
2024-01-27T10:52:35.017Z,102497.16
2024-01-27T10:55:08.239Z,102495.88
2024-01-27T10:57:38.991Z,102506.97
2024-01-27T11:00:09.636Z,102511.38
2024-01-27T11:02:41.186Z,102513.69
2024-01-27T11:05:13.944Z,102513.06
2024-01-27T11:07:43.738Z,102505.31
2024-01-27T11:10:11.999Z,102497.56
2024-01-27T11:12:41.858Z,102505.94
2024-01-27T11:15:10.133Z,102512.66
2024-01-27T11:17:42.712Z,102512.69
2024-01-27T11:20:12.914Z,102517.69
2024-01-27T11:22:44.264Z,102519.75
2024-01-27T11:25:18.594Z,102512.44
2024-01-27T11:27:49.295Z,102511.00
2024-01-27T11:30:29.963Z,102524.69
2024-01-27T11:32:59.073Z,102525.47
2024-01-27T11:35:27.653Z,102521.06
2024-01-27T11:37:56.791Z,102520.22
2024-01-27T11:40:24.756Z,102538.91
2024-01-27T11:43:00.890Z,102541.44
2024-01-27T11:45:30.425Z,102539.94
2024-01-27T11:47:58.762Z,102546.88
2024-01-27T11:50:26.592Z,102535.72
2024-01-27T11:52:55.143Z,102541.19
2024-01-27T11:55:23.261Z,102550.00
2024-01-27T11:57:50.957Z,102547.69
2024-01-27T12:00:21.059Z,102556.28
2024-01-27T12:02:52.619Z,102552.50
2024-01-27T12:05:21.307Z,102553.56
2024-01-27T12:07:49.559Z,102545.38
2024-01-27T12:10:17.291Z,102552.53
2024-01-27T12:12:45.443Z,102553.13
2024-01-27T12:15:13.892Z,102551.66
2024-01-27T12:17:42.973Z,102560.91
2024-01-27T12:20:18.171Z,102563.06
2024-01-27T12:22:46.529Z,102569.34
2024-01-27T12:25:16.275Z,102582.78
2024-01-27T12:27:44.327Z,102592.19
2024-01-27T12:30:12.645Z,102576.00
2024-01-27T12:32:40.848Z,102585.03
2024-01-27T12:35:11.437Z,102585.72
2024-01-27T12:37:39.468Z,102586.34
2024-01-27T12:40:23.286Z,102588.22
2024-01-27T12:42:52.396Z,102582.69
2024-01-27T12:45:20.986Z,102590.47
2024-01-27T12:47:48.997Z,102583.97
2024-01-27T12:50:19.041Z,102595.06
2024-01-27T12:52:47.158Z,102604.13
2024-01-27T12:55:15.877Z,102598.19
2024-01-27T12:57:43.779Z,102605.84
2024-01-27T13:00:13.466Z,102607.84
2024-01-27T13:02:42.053Z,102609.91
2024-01-27T13:05:10.588Z,102609.69
2024-01-27T13:07:39.991Z,102613.28
2024-01-27T13:10:08.615Z,102604.69
2024-01-27T13:12:36.916Z,102608.09
2024-01-27T13:15:05.738Z,102606.88
2024-01-27T13:17:34.114Z,102605.13
2024-01-27T13:20:02.239Z,102608.81
2024-01-27T13:22:29.968Z,102618.00
2024-01-27T13:25:04.777Z,102625.06
2024-01-27T13:27:35.290Z,102617.00
2024-01-27T13:30:03.520Z,102631.25
2024-01-27T13:32:31.715Z,102632.09
2024-01-27T13:34:59.898Z,102629.19
2024-01-27T13:37:28.825Z,102625.25
2024-01-27T13:39:58.494Z,102632.41
2024-01-27T13:42:27.767Z,102623.16
2024-01-27T13:44:56.179Z,102622.09
2024-01-27T13:47:24.083Z,102621.69
2024-01-27T13:49:52.080Z,102625.06
2024-01-27T13:52:20.404Z,102616.44
2024-01-27T13:54:48.649Z,102625.06
2024-01-27T13:57:17.771Z,102624.00
2024-01-27T13:59:47.406Z,102634.94
2024-01-27T14:02:15.571Z,102630.28
2024-01-27T14:04:43.259Z,102626.78
2024-01-27T14:07:11.559Z,102629.91
2024-01-27T14:09:40.156Z,102628.84
2024-01-27T14:12:09.298Z,102633.03
2024-01-27T14:14:40.166Z,102630.91
2024-01-27T14:17:10.294Z,102630.25
2024-01-27T14:19:38.472Z,102634.47
2024-01-27T14:22:07.378Z,102627.97
2024-01-27T14:24:35.672Z,102633.63
2024-01-27T14:27:04.161Z,102633.22
2024-01-27T14:29:33.273Z,102633.41
2024-01-27T14:32:01.364Z,102635.09
2024-01-27T14:34:31.109Z,102646.22
2024-01-27T14:36:59.259Z,102647.72
2024-01-27T14:39:27.585Z,102645.41
2024-01-27T14:41:56.037Z,102653.59
2024-01-27T14:44:23.740Z,102656.09
2024-01-27T14:46:51.443Z,102660.28
2024-01-27T14:49:19.723Z,102667.41
2024-01-27T14:51:49.340Z,102659.47
2024-01-27T14:54:19.510Z,102677.31
2024-01-27T14:56:48.193Z,102670.34
2024-01-27T14:59:16.350Z,102667.38
2024-01-27T15:01:44.132Z,102669.91
2024-01-27T15:04:12.385Z,102665.69
2024-01-27T15:06:41.342Z,102669.03
2024-01-27T15:09:10.841Z,102674.28
2024-01-27T15:11:38.560Z,102675.72
2024-01-27T15:14:06.585Z,102672.16
2024-01-27T15:16:35.700Z,102675.69
2024-01-27T15:19:04.025Z,102680.50
2024-01-27T15:21:33.137Z,102681.38
2024-01-27T15:24:01.116Z,102692.88
2024-01-27T15:26:30.851Z,102698.31
2024-01-27T15:28:58.547Z,102693.47
2024-01-27T15:31:26.827Z,102698.63
2024-01-27T15:33:55.414Z,102697.75
2024-01-27T15:36:23.739Z,102703.16
2024-01-27T15:38:51.466Z,102703.19
2024-01-27T15:41:20.433Z,102696.88
2024-01-27T15:43:50.696Z,102690.03
2024-01-27T15:46:18.552Z,102694.97
2024-01-27T15:48:47.056Z,102697.25
2024-01-27T15:51:15.227Z,102692.28
2024-01-27T15:53:42.901Z,102701.06
2024-01-27T15:56:11.878Z,102706.31
2024-01-27T15:58:39.991Z,102714.78
2024-01-27T16:01:09.232Z,102717.06
2024-01-27T16:03:39.331Z,102721.19
2024-01-27T16:06:09.104Z,102725.34
2024-01-27T16:08:37.051Z,102722.31
2024-01-27T16:11:05.444Z,102734.59
2024-01-27T16:13:33.534Z,102732.81
2024-01-27T16:16:01.231Z,102736.91
2024-01-27T16:18:30.879Z,102737.28
2024-01-27T16:20:59.090Z,102739.72
2024-01-27T16:23:27.232Z,102741.63
2024-01-27T16:25:55.280Z,102745.00
2024-01-27T16:28:22.965Z,102750.06
2024-01-27T16:30:50.746Z,102758.97
2024-01-27T16:33:18.949Z,102754.03
2024-01-27T16:35:48.561Z,102756.06
2024-01-27T16:38:16.293Z,102751.19
2024-01-27T16:40:44.459Z,102749.69
2024-01-27T16:43:12.640Z,102750.75
2024-01-27T16:45:40.947Z,102753.03
2024-01-27T16:48:09.470Z,102750.06
2024-01-27T16:50:37.405Z,102760.31
2024-01-27T16:53:07.057Z,102757.41
2024-01-27T16:55:35.985Z,102761.56
2024-01-27T16:58:03.996Z,102752.44
2024-01-27T17:00:32.465Z,102757.63
2024-01-27T17:03:00.595Z,102749.25
2024-01-27T17:05:28.773Z,102745.50
2024-01-27T17:07:56.438Z,102741.59
2024-01-27T17:10:26.185Z,102753.44
2024-01-27T17:12:53.849Z,102749.59
2024-01-27T17:15:22.589Z,102746.94
2024-01-27T17:17:50.407Z,102738.63
2024-01-27T17:20:18.879Z,102746.31
2024-01-27T17:22:46.965Z,102744.34
2024-01-27T17:25:14.809Z,102751.81
2024-01-27T17:27:44.426Z,102741.63
2024-01-27T17:30:14.624Z,102744.69
2024-01-27T17:32:44.524Z,102743.38
2024-01-27T17:35:12.747Z,102744.47
2024-01-27T17:37:40.827Z,102744.16
2024-01-27T17:40:09.865Z,102756.09
2024-01-27T17:42:38.264Z,102752.59
2024-01-27T17:45:09.735Z,102755.91
2024-01-27T17:47:38.584Z,102762.91
2024-01-27T17:50:07.870Z,102764.66
2024-01-27T17:52:36.832Z,102764.25
2024-01-27T17:55:05.881Z,102768.34
2024-01-27T17:57:34.081Z,102770.59
2024-01-27T18:00:02.424Z,102774.34
2024-01-27T18:02:31.833Z,102780.19
2024-01-27T18:05:00.191Z,102770.41
2024-01-27T18:07:28.254Z,102772.75
2024-01-27T18:09:55.939Z,102778.97
2024-01-27T18:12:24.232Z,102782.25
2024-01-27T18:14:52.339Z,102785.19
2024-01-27T18:17:20.532Z,102780.09
2024-01-27T18:19:50.401Z,102782.47
2024-01-27T18:22:18.118Z,102773.91
2024-01-27T18:24:46.234Z,102780.84
2024-01-27T18:27:15.321Z,102782.97
2024-01-27T18:29:44.449Z,102786.41
2024-01-27T18:32:12.506Z,102785.84
2024-01-27T18:34:40.352Z,102793.72
2024-01-27T18:37:09.946Z,102806.97
2024-01-27T18:39:40.032Z,102802.34
2024-01-27T18:42:08.086Z,102801.97
2024-01-27T18:44:37.913Z,102809.22
2024-01-27T18:47:06.335Z,102809.78
2024-01-27T18:49:34.187Z,102805.75
2024-01-27T18:52:02.075Z,102808.22
2024-01-27T18:54:31.495Z,102813.28
2024-01-27T18:56:59.629Z,102817.41
2024-01-27T18:59:27.769Z,102812.72
2024-01-27T19:01:58.040Z,102817.59
2024-01-27T19:04:26.519Z,102816.47
2024-01-27T19:06:54.735Z,102822.75
2024-01-27T19:09:22.511Z,102833.25
2024-01-27T19:11:51.997Z,102834.09
2024-01-27T19:14:19.699Z,102831.47
2024-01-27T19:16:47.412Z,102838.16
2024-01-27T19:19:16.203Z,102825.66
2024-01-27T19:21:44.168Z,102833.28
2024-01-27T19:24:12.334Z,102826.53
2024-01-27T19:26:40.126Z,102826.31
2024-01-27T19:29:09.978Z,102825.13
2024-01-27T19:31:37.879Z,102838.06
2024-01-27T19:34:05.670Z,102840.75
2024-01-27T19:36:33.832Z,102832.50
2024-01-27T19:39:01.970Z,102838.06
2024-01-27T19:41:29.692Z,102846.22
2024-01-27T19:43:57.473Z,102838.44
2024-01-27T19:46:27.114Z,102840.84
2024-01-27T19:48:55.679Z,102834.59
2024-01-27T19:51:23.681Z,102834.59
2024-01-27T19:53:51.862Z,102840.69
2024-01-27T19:56:19.534Z,102832.81
2024-01-27T19:58:47.230Z,102830.94
2024-01-27T20:01:17.716Z,102827.75
2024-01-27T20:03:48.685Z,102827.84
2024-01-27T20:06:17.253Z,102833.84
2024-01-27T20:08:45.326Z,102834.59
2024-01-27T20:11:13.798Z,102824.94
2024-01-27T20:13:41.844Z,102836.94
2024-01-27T20:16:10.081Z,102831.13
2024-01-27T20:18:38.019Z,102833.28
2024-01-27T20:21:07.677Z,102837.31
2024-01-27T20:23:34.461Z,102844.53
2024-01-27T20:26:02.154Z,102842.38
2024-01-27T20:28:30.242Z,102846.94
2024-01-27T20:30:58.445Z,102849.78
2024-01-27T20:33:31.608Z,102853.25
2024-01-27T20:36:07.740Z,102859.06
2024-01-27T20:38:38.020Z,102869.72
2024-01-27T20:41:05.886Z,102861.28
2024-01-27T20:43:33.921Z,102864.94
2024-01-27T20:46:03.019Z,102873.56
2024-01-27T20:48:31.043Z,102866.47
2024-01-27T20:50:58.868Z,102865.91
2024-01-27T20:53:27.968Z,102863.25
2024-01-27T20:55:55.930Z,102869.81
2024-01-27T20:58:23.636Z,102867.22
2024-01-27T21:00:52.083Z,102867.47
2024-01-27T21:03:20.475Z,102870.09
2024-01-27T21:05:48.612Z,102874.06
2024-01-27T21:08:16.898Z,102879.38
2024-01-27T21:10:46.862Z,102878.53
2024-01-27T21:13:14.934Z,102882.00
2024-01-27T21:15:43.192Z,102890.16
2024-01-27T21:18:11.671Z,102884.53
2024-01-27T21:20:39.754Z,102887.91
2024-01-27T21:23:09.400Z,102876.47
2024-01-27T21:25:37.193Z,102878.63
2024-01-27T21:28:07.035Z,102886.28
2024-01-27T21:30:34.868Z,102892.38
2024-01-27T21:33:03.387Z,102899.81
2024-01-27T21:35:35.256Z,102890.72
2024-01-27T21:38:04.822Z,102887.44
2024-01-27T21:40:34.583Z,102885.25
2024-01-27T21:43:02.697Z,102884.97
2024-01-27T21:45:32.757Z,102896.94
2024-01-27T21:48:02.272Z,102885.22
2024-01-27T21:50:30.436Z,102888.59
2024-01-27T21:52:58.115Z,102889.25
2024-01-27T21:55:26.376Z,102889.25
2024-01-27T21:57:54.481Z,102892.72
2024-01-27T22:00:22.679Z,102886.75
2024-01-27T22:02:54.096Z,102897.47
2024-01-27T22:05:23.919Z,102897.72
2024-01-27T22:07:52.404Z,102898.34
2024-01-27T22:10:20.680Z,102894.78
2024-01-27T22:12:48.572Z,102898.88
2024-01-27T22:15:17.275Z,102902.19
2024-01-27T22:17:45.270Z,102901.72
2024-01-27T22:20:14.673Z,102901.94
2024-01-27T22:22:43.420Z,102904.53
2024-01-27T22:25:12.870Z,102909.69
2024-01-27T22:27:41.729Z,102906.19
2024-01-27T22:30:12.119Z,102910.50
2024-01-27T22:32:40.644Z,102914.22
2024-01-27T22:35:09.493Z,102911.56
2024-01-27T22:37:38.616Z,102912.38
2024-01-27T22:40:08.148Z,102915.31
2024-01-27T22:42:36.392Z,102913.31
2024-01-27T22:45:04.401Z,102917.53
2024-01-27T22:47:34.360Z,102913.00
2024-01-27T22:50:04.560Z,102911.16
2024-01-27T22:52:32.381Z,102913.78
2024-01-27T22:55:01.792Z,102912.47
2024-01-27T22:57:31.527Z,102909.63
2024-01-27T22:59:59.916Z,102908.84
2024-01-27T23:02:27.669Z,102908.31
2024-01-27T23:04:55.713Z,102909.38
2024-01-27T23:07:23.462Z,102904.63
2024-01-27T23:09:51.247Z,102909.88
2024-01-27T23:12:20.933Z,102901.19
2024-01-27T23:14:48.773Z,102903.78
2024-01-27T23:17:16.930Z,102903.13
2024-01-27T23:19:44.747Z,102907.09
2024-01-27T23:22:12.645Z,102897.97
2024-01-27T23:24:40.733Z,102898.81
2024-01-27T23:27:09.254Z,102903.78
2024-01-27T23:29:38.931Z,102899.84
2024-01-27T23:32:07.714Z,102900.03
2024-01-27T23:34:35.958Z,102901.22
2024-01-27T23:37:04.002Z,102896.81
2024-01-27T23:39:31.920Z,102900.03
2024-01-27T23:41:59.696Z,102899.19
2024-01-27T23:44:27.471Z,102893.81
2024-01-27T23:46:56.583Z,102894.84
2024-01-27T23:49:24.815Z,102891.47
2024-01-27T23:51:54.527Z,102883.66
2024-01-27T23:54:22.347Z,102884.88
2024-01-27T23:56:50.493Z,102887.28
2024-01-27T23:59:19.315Z,102884.00
